createdAt,value
2023-05-07T00:01:47.950Z,99993.53
2023-05-07T00:04:38.768Z,99995.41
2023-05-07T00:07:27.545Z,100000.25
2023-05-07T00:10:15.995Z,100000.16
2023-05-07T00:13:04.538Z,99989.28
2023-05-07T00:15:53.041Z,99990.09
2023-05-07T00:18:42.826Z,99996.75
2023-05-07T00:21:31.602Z,99980.41
2023-05-07T00:24:20.076Z,99982.88
2023-05-07T00:27:08.525Z,99979.50
2023-05-07T00:29:57.092Z,99981.63
2023-05-07T00:32:46.438Z,99987.09
2023-05-07T00:35:36.354Z,99989.75
2023-05-07T00:38:25.065Z,99977.09
2023-05-07T00:41:13.534Z,99971.78
2023-05-07T00:44:02.599Z,99963.72
2023-05-07T00:46:51.289Z,99976.56
2023-05-07T00:49:42.248Z,99964.47
2023-05-07T00:52:32.216Z,99963.66
2023-05-07T00:55:20.933Z,99966.41
2023-05-07T00:58:09.394Z,99964.09
2023-05-07T01:00:57.928Z,99948.78
2023-05-07T01:03:46.513Z,99967.94
2023-05-07T01:06:35.550Z,99963.59
2023-05-07T01:09:26.813Z,99936.06
2023-05-07T01:12:15.406Z,99966.97
2023-05-07T01:15:04.468Z,99947.44
2023-05-07T01:17:53.030Z,99963.09
2023-05-07T01:20:42.194Z,99970.25
2023-05-07T01:23:32.403Z,99966.75
2023-05-07T01:26:21.163Z,99962.25
2023-05-07T01:29:09.717Z,99960.84
2023-05-07T01:31:59.845Z,99960.00
2023-05-07T01:34:49.975Z,99962.25
2023-05-07T01:37:38.701Z,99964.13
2023-05-07T01:40:29.488Z,99962.03
2023-05-07T01:43:18.095Z,99961.81
2023-05-07T01:46:06.905Z,99955.38
2023-05-07T01:48:55.402Z,99956.03
2023-05-07T01:51:43.910Z,99957.94
2023-05-07T01:54:32.571Z,99962.25
2023-05-07T01:57:22.838Z,99967.94
2023-05-07T02:00:12.549Z,99960.41
2023-05-07T02:03:01.518Z,99959.44
2023-05-07T02:05:50.453Z,99969.75
2023-05-07T02:08:38.980Z,99961.81
2023-05-07T02:11:27.942Z,99958.91
2023-05-07T02:14:17.741Z,99954.78
2023-05-07T02:17:06.226Z,99940.03
2023-05-07T02:19:54.648Z,99955.75
2023-05-07T02:22:43.077Z,99942.84
2023-05-07T02:25:31.574Z,99950.56
2023-05-07T02:28:20.052Z,99954.66
2023-05-07T02:31:09.857Z,99971.16
2023-05-07T02:33:58.321Z,99948.22
2023-05-07T02:36:46.940Z,99965.66
2023-05-07T02:39:35.862Z,99967.69
2023-05-07T02:42:24.354Z,99960.72
2023-05-07T02:45:13.166Z,99900.03
2023-05-07T02:48:03.008Z,99965.22
2023-05-07T02:50:51.545Z,99959.66
2023-05-07T02:53:40.046Z,99959.31
2023-05-07T02:56:28.852Z,99953.53
2023-05-07T02:59:17.345Z,99949.66
2023-05-07T03:02:06.478Z,99951.06
2023-05-07T03:04:56.283Z,99953.09
2023-05-07T03:07:47.042Z,99933.94
2023-05-07T03:10:35.602Z,99937.59
2023-05-07T03:13:24.211Z,99937.28
2023-05-07T03:16:12.805Z,99937.91
2023-05-07T03:19:01.397Z,99936.03
2023-05-07T03:21:51.390Z,99937.13
2023-05-07T03:24:39.900Z,99934.22
2023-05-07T03:27:28.358Z,99930.50
2023-05-07T03:30:16.849Z,99930.34
2023-05-07T03:33:05.624Z,99933.47
2023-05-07T03:35:54.095Z,99930.78
2023-05-07T03:38:43.898Z,99937.78
2023-05-07T03:41:32.621Z,99932.94
2023-05-07T03:44:21.144Z,99938.03
2023-05-07T03:47:11.118Z,99925.69
2023-05-07T03:50:00.400Z,99949.56
2023-05-07T03:52:48.868Z,99942.50
2023-05-07T03:55:38.643Z,99947.22
2023-05-07T03:58:27.097Z,99935.22
2023-05-07T04:01:15.681Z,99952.16
2023-05-07T04:04:05.326Z,99953.34
2023-05-07T04:06:54.000Z,99953.50
2023-05-07T04:09:42.505Z,99956.56
2023-05-07T04:12:32.290Z,99958.59
2023-05-07T04:15:20.894Z,99955.47
2023-05-07T04:18:09.497Z,99962.25
2023-05-07T04:20:58.104Z,99956.75
2023-05-07T04:23:46.717Z,99975.06
2023-05-07T04:26:35.156Z,99968.84
2023-05-07T04:29:24.901Z,99977.09
2023-05-07T04:32:13.730Z,99976.47
2023-05-07T04:35:02.350Z,99967.59
2023-05-07T04:37:50.885Z,99962.00
2023-05-07T04:40:39.886Z,99969.84
2023-05-07T04:43:28.383Z,99949.69
2023-05-07T04:46:18.215Z,99976.66
2023-05-07T04:49:06.858Z,99974.00
2023-05-07T04:51:55.428Z,99980.97
2023-05-07T04:54:43.962Z,99980.97
2023-05-07T04:57:32.496Z,99983.84
2023-05-07T05:00:21.210Z,99973.28
2023-05-07T05:03:11.306Z,99988.19
2023-05-07T05:06:00.835Z,99988.59
2023-05-07T05:08:49.268Z,99987.53
2023-05-07T05:11:37.813Z,99988.50
2023-05-07T05:14:26.301Z,99982.75
2023-05-07T05:17:14.845Z,99995.75
2023-05-07T05:20:05.681Z,100000.94
2023-05-07T05:22:54.151Z,99999.38
2023-05-07T05:25:42.620Z,100001.69
2023-05-07T05:28:31.127Z,100001.06
2023-05-07T05:31:19.612Z,100005.69
2023-05-07T05:34:08.098Z,99994.69
2023-05-07T05:36:58.005Z,100009.50
2023-05-07T05:39:46.576Z,100010.94
2023-05-07T05:42:35.236Z,100010.50
2023-05-07T05:45:23.819Z,100002.09
2023-05-07T05:48:12.475Z,100006.94
2023-05-07T05:51:01.090Z,100014.06
2023-05-07T05:53:51.288Z,99907.84
2023-05-07T05:56:39.838Z,100022.31
2023-05-07T05:59:28.546Z,100025.72
2023-05-07T06:02:17.208Z,100020.31
2023-05-07T06:05:06.890Z,100013.38
2023-05-07T06:07:55.548Z,100010.91
2023-05-07T06:10:45.412Z,100016.31
2023-05-07T06:13:33.953Z,100017.03
2023-05-07T06:16:22.571Z,100003.47
2023-05-07T06:19:10.999Z,99999.66
2023-05-07T06:21:59.517Z,100000.66
2023-05-07T06:24:48.082Z,100013.97
2023-05-07T06:27:37.863Z,100015.41
2023-05-07T06:30:27.743Z,100009.25
2023-05-07T06:33:16.241Z,100023.34
2023-05-07T06:36:05.333Z,100022.44
2023-05-07T06:38:53.809Z,100011.28
2023-05-07T06:41:42.339Z,100022.53
2023-05-07T06:44:32.251Z,100020.03
2023-05-07T06:47:20.853Z,100018.91
2023-05-07T06:50:10.919Z,100022.22
2023-05-07T06:52:59.600Z,100019.88
2023-05-07T06:55:48.030Z,100026.72
2023-05-07T06:58:36.494Z,100014.31
2023-05-07T07:01:26.309Z,100020.31
2023-05-07T07:04:14.995Z,100033.31
2023-05-07T07:07:03.604Z,100021.63
2023-05-07T07:09:55.322Z,100017.97
2023-05-07T07:12:44.914Z,100018.06
2023-05-07T07:15:33.466Z,99995.22
2023-05-07T07:18:23.323Z,100021.63
2023-05-07T07:21:11.979Z,100021.81
2023-05-07T07:24:00.499Z,100028.88
2023-05-07T07:26:49.017Z,100035.94
2023-05-07T07:29:37.524Z,100043.03
2023-05-07T07:32:26.689Z,100038.34
2023-05-07T07:35:16.966Z,100036.81
2023-05-07T07:38:05.684Z,100031.09
2023-05-07T07:40:54.210Z,100029.81
2023-05-07T07:43:42.682Z,100049.22
2023-05-07T07:46:31.288Z,100060.41
2023-05-07T07:49:19.839Z,100060.16
2023-05-07T07:52:09.755Z,100059.59
2023-05-07T07:54:58.277Z,100066.94
2023-05-07T07:57:46.740Z,100050.81
2023-05-07T08:00:35.327Z,100056.78
2023-05-07T08:03:23.949Z,100061.19
2023-05-07T08:06:12.505Z,100054.13
2023-05-07T08:09:02.784Z,100061.25
2023-05-07T08:11:51.802Z,100025.53
2023-05-07T08:14:40.609Z,100075.47
2023-05-07T08:17:29.263Z,100060.75
2023-05-07T08:20:18.046Z,100072.66
2023-05-07T08:23:07.336Z,100075.91
2023-05-07T08:25:57.378Z,100082.13
2023-05-07T08:28:45.950Z,100085.91
2023-05-07T08:31:34.794Z,100077.38
2023-05-07T08:34:24.237Z,100090.03
2023-05-07T08:37:12.841Z,100054.03
2023-05-07T08:40:01.547Z,100084.84
2023-05-07T08:42:51.989Z,100082.41
2023-05-07T08:45:41.866Z,100084.56
2023-05-07T08:48:31.874Z,100078.00
2023-05-07T08:51:21.589Z,100078.00
2023-05-07T08:54:11.398Z,100070.25
2023-05-07T08:57:00.487Z,100073.97
2023-05-07T08:59:50.357Z,100078.78
2023-05-07T09:02:39.064Z,100069.13
2023-05-07T09:05:27.569Z,100070.59
2023-05-07T09:08:17.308Z,100075.41
2023-05-07T09:11:06.138Z,100082.91
2023-05-07T09:13:56.468Z,100029.88
2023-05-07T09:16:46.337Z,100070.94
2023-05-07T09:19:35.179Z,100072.38
2023-05-07T09:22:23.907Z,100071.78
2023-05-07T09:25:12.672Z,100056.28
2023-05-07T09:28:01.827Z,100067.19
2023-05-07T09:30:50.382Z,100072.91
2023-05-07T09:33:40.539Z,100073.72
2023-05-07T09:36:29.349Z,100076.84
2023-05-07T09:39:18.438Z,100075.50
2023-05-07T09:42:07.217Z,100066.78
2023-05-07T09:44:57.002Z,100068.13
2023-05-07T09:47:46.683Z,100057.53
2023-05-07T09:50:39.523Z,100065.34
2023-05-07T09:53:28.181Z,100052.31
2023-05-07T09:56:17.459Z,100055.22
2023-05-07T09:59:07.786Z,100029.78
2023-05-07T10:01:59.245Z,100041.97
2023-05-07T10:04:48.493Z,100049.41
2023-05-07T10:07:38.447Z,100037.41
2023-05-07T10:10:27.064Z,100043.31
2023-05-07T10:13:15.865Z,100029.78
2023-05-07T10:16:05.667Z,100001.03
2023-05-07T10:18:55.361Z,100045.41
2023-05-07T10:21:47.158Z,100046.75
2023-05-07T10:24:38.918Z,100041.56
2023-05-07T10:27:27.721Z,100025.88
2023-05-07T10:30:24.214Z,100042.69
2023-05-07T10:33:14.383Z,100035.56
2023-05-07T10:36:05.448Z,100037.91
2023-05-07T10:38:54.423Z,100030.28
2023-05-07T10:41:44.392Z,100026.03
2023-05-07T10:44:33.278Z,100033.06
2023-05-07T10:47:22.027Z,100037.94
2023-05-07T10:50:24.532Z,100027.19
2023-05-07T10:53:27.609Z,100025.34
2023-05-07T10:56:29.151Z,100023.69
2023-05-07T10:59:42.929Z,100025.97
2023-05-07T11:03:09.149Z,100033.28
2023-05-07T11:06:14.707Z,100022.06
2023-05-07T11:09:03.331Z,100016.75
2023-05-07T11:11:53.136Z,100023.72
2023-05-07T11:14:48.920Z,100019.03
2023-05-07T11:17:54.708Z,100006.91
2023-05-07T11:20:57.076Z,100011.78
2023-05-07T11:24:01.499Z,99996.94
2023-05-07T11:26:50.929Z,100007.97
2023-05-07T11:29:39.833Z,100000.66
2023-05-07T11:32:31.037Z,100006.34
2023-05-07T11:35:20.159Z,99990.63
2023-05-07T11:38:08.821Z,99993.72
2023-05-07T11:40:59.886Z,100007.59
2023-05-07T11:44:01.405Z,100005.94
2023-05-07T11:46:50.654Z,99965.69
2023-05-07T11:49:41.643Z,100003.44
2023-05-07T11:52:30.258Z,99994.81
2023-05-07T11:55:20.503Z,99969.16
2023-05-07T11:58:10.748Z,100005.72
2023-05-07T12:00:59.449Z,100017.59
2023-05-07T12:03:48.362Z,99969.59
2023-05-07T12:06:40.221Z,100006.97
2023-05-07T12:09:28.794Z,100003.34
2023-05-07T12:12:18.357Z,99997.31
2023-05-07T12:15:08.011Z,99973.78
2023-05-07T12:17:56.722Z,99990.03
2023-05-07T12:20:46.101Z,99989.38
2023-05-07T12:23:36.872Z,99977.72
2023-05-07T12:26:25.836Z,99977.28
2023-05-07T12:29:14.353Z,99984.22
2023-05-07T12:32:04.135Z,99984.56
2023-05-07T12:34:53.835Z,99985.38
2023-05-07T12:37:43.092Z,99977.13
2023-05-07T12:40:39.357Z,99969.22
2023-05-07T12:43:28.843Z,99949.28
2023-05-07T12:46:19.452Z,99985.56
2023-05-07T12:49:08.017Z,99991.88
2023-05-07T12:51:57.170Z,99990.13
2023-05-07T12:54:46.444Z,99973.00
2023-05-07T12:57:41.698Z,99929.34
2023-05-07T13:00:37.707Z,99971.28
2023-05-07T13:03:27.852Z,99980.03
2023-05-07T13:06:16.570Z,99980.44
2023-05-07T13:09:05.651Z,99977.22
2023-05-07T13:11:54.411Z,99989.53
2023-05-07T13:14:44.495Z,99969.44
2023-05-07T13:17:33.161Z,99980.44
2023-05-07T13:20:21.773Z,99979.00
2023-05-07T13:23:10.558Z,99985.56
2023-05-07T13:25:59.076Z,99992.38
2023-05-07T13:28:47.618Z,99988.75
2023-05-07T13:31:37.590Z,100009.72
2023-05-07T13:34:26.348Z,100018.28
2023-05-07T13:37:15.291Z,100023.34
2023-05-07T13:40:04.682Z,100048.00
2023-05-07T13:42:53.234Z,100051.44
2023-05-07T13:45:42.124Z,100052.09
2023-05-07T13:48:32.013Z,100057.72
2023-05-07T13:51:20.498Z,99986.53
2023-05-07T13:54:09.017Z,100061.56
2023-05-07T13:56:57.592Z,100059.19
2023-05-07T13:59:46.334Z,100052.81
2023-05-07T14:02:35.233Z,100051.47
2023-05-07T14:05:25.624Z,100044.63
2023-05-07T14:08:14.851Z,100045.47
2023-05-07T14:11:03.636Z,100056.88
2023-05-07T14:13:52.143Z,100071.38
2023-05-07T14:16:40.761Z,100042.19
2023-05-07T14:19:30.612Z,100062.38
2023-05-07T14:22:20.539Z,100051.47
2023-05-07T14:25:10.658Z,100062.88
2023-05-07T14:27:59.315Z,100045.38
2023-05-07T14:30:49.027Z,100057.91
2023-05-07T14:33:39.135Z,100049.34
2023-05-07T14:36:28.948Z,100068.75
2023-05-07T14:39:18.835Z,100062.38
2023-05-07T14:42:08.808Z,100059.09
2023-05-07T14:44:57.379Z,100070.13
2023-05-07T14:47:46.070Z,100071.88
2023-05-07T14:50:34.630Z,100068.28
2023-05-07T14:53:23.166Z,100060.31
2023-05-07T14:56:13.961Z,100060.66
2023-05-07T14:59:02.703Z,100051.38
2023-05-07T15:01:51.243Z,100046.16
2023-05-07T15:04:41.382Z,100068.75
2023-05-07T15:07:29.850Z,100074.31
2023-05-07T15:10:18.632Z,100075.69
2023-05-07T15:13:08.860Z,100086.03
2023-05-07T15:15:57.403Z,100089.34
2023-05-07T15:18:46.153Z,100089.09
2023-05-07T15:21:35.783Z,100080.88
2023-05-07T15:24:24.602Z,100087.69
2023-05-07T15:27:13.203Z,100083.09
2023-05-07T15:30:03.323Z,100082.25
2023-05-07T15:32:52.053Z,100074.84
2023-05-07T15:35:40.634Z,100021.75
2023-05-07T15:38:29.329Z,100088.25
2023-05-07T15:41:17.889Z,100079.00
2023-05-07T15:44:06.500Z,100077.09
2023-05-07T15:46:56.458Z,100078.19
2023-05-07T15:49:45.035Z,100025.84
2023-05-07T15:52:33.546Z,100084.72
2023-05-07T15:55:22.144Z,100065.38
2023-05-07T15:58:10.767Z,100074.41
2023-05-07T16:00:59.398Z,100086.63
2023-05-07T16:03:49.468Z,100079.56
2023-05-07T16:06:38.105Z,100085.81
2023-05-07T16:09:28.236Z,100090.16
2023-05-07T16:12:18.237Z,100095.06
2023-05-07T16:15:08.410Z,100091.28
2023-05-07T16:17:58.266Z,100107.88
2023-05-07T16:20:48.528Z,100106.78
2023-05-07T16:23:37.556Z,100035.66
2023-05-07T16:26:26.280Z,100088.00
2023-05-07T16:29:15.856Z,100091.56
2023-05-07T16:32:04.464Z,100113.06
2023-05-07T16:34:53.159Z,100131.00
2023-05-07T16:37:43.217Z,100103.00
2023-05-07T16:40:31.800Z,100127.13
2023-05-07T16:43:20.520Z,100133.19
2023-05-07T16:46:09.407Z,100129.25
2023-05-07T16:48:58.198Z,100133.06
2023-05-07T16:51:47.143Z,100123.44
2023-05-07T16:54:38.135Z,100131.84
2023-05-07T16:57:26.782Z,100133.78
2023-05-07T17:00:16.783Z,100139.69
2023-05-07T17:03:06.100Z,100149.16
2023-05-07T17:05:55.125Z,100152.50
2023-05-07T17:08:43.779Z,100153.78
2023-05-07T17:11:35.100Z,100152.63
2023-05-07T17:14:23.760Z,100138.44
2023-05-07T17:17:12.342Z,100160.44
2023-05-07T17:20:01.311Z,100163.97
2023-05-07T17:22:50.730Z,100183.97
2023-05-07T17:25:39.268Z,100171.66
2023-05-07T17:28:29.087Z,100175.44
2023-05-07T17:31:17.696Z,100177.22
2023-05-07T17:34:06.247Z,100192.63
2023-05-07T17:36:54.774Z,100198.94
2023-05-07T17:39:45.051Z,100199.91
2023-05-07T17:42:33.532Z,100199.81
2023-05-07T17:45:23.885Z,100208.25
2023-05-07T17:48:12.773Z,100202.63
2023-05-07T17:51:04.537Z,100217.41
2023-05-07T17:53:53.290Z,100213.00
2023-05-07T17:56:41.797Z,100206.41
2023-05-07T17:59:30.556Z,100218.56
2023-05-07T18:02:20.479Z,100230.81
2023-05-07T18:05:09.831Z,100233.59
2023-05-07T18:07:58.383Z,100231.97
2023-05-07T18:10:46.939Z,100230.81
2023-05-07T18:13:35.541Z,100230.63
2023-05-07T18:16:24.061Z,100234.69
2023-05-07T18:19:14.004Z,100237.00
2023-05-07T18:22:02.540Z,100231.22
2023-05-07T18:24:51.213Z,100190.94
2023-05-07T18:27:39.676Z,100251.88
2023-05-07T18:30:28.129Z,100251.22
2023-05-07T18:33:16.711Z,100253.44
2023-05-07T18:36:07.620Z,100252.31
2023-05-07T18:38:56.129Z,100250.66
2023-05-07T18:41:45.595Z,100244.41
2023-05-07T18:44:37.463Z,100250.63
2023-05-07T18:47:25.991Z,100250.72
2023-05-07T18:50:15.289Z,100255.44
2023-05-07T18:53:05.058Z,100250.19
2023-05-07T18:55:53.991Z,100252.53
2023-05-07T18:58:42.469Z,100245.50
2023-05-07T19:01:31.052Z,100232.81
2023-05-07T19:04:20.191Z,100241.03
2023-05-07T19:07:08.726Z,100246.72
2023-05-07T19:10:04.906Z,100206.09
2023-05-07T19:12:55.674Z,100250.66
2023-05-07T19:15:44.480Z,100254.59
2023-05-07T19:18:33.140Z,100256.41
2023-05-07T19:21:21.886Z,100270.09
2023-05-07T19:24:10.339Z,100268.50
2023-05-07T19:27:00.192Z,100275.81
2023-05-07T19:29:48.646Z,100277.59
2023-05-07T19:32:37.130Z,100284.88
2023-05-07T19:35:25.639Z,100285.72
2023-05-07T19:38:14.108Z,100277.00
2023-05-07T19:41:02.680Z,100264.47
2023-05-07T19:43:52.495Z,100287.03
2023-05-07T19:46:44.910Z,100302.69
2023-05-07T19:49:33.886Z,100291.19
2023-05-07T19:52:22.387Z,100307.31
2023-05-07T19:55:12.635Z,100313.31
2023-05-07T19:58:01.376Z,100317.44
2023-05-07T20:00:51.290Z,100315.56
2023-05-07T20:03:39.912Z,100313.56
2023-05-07T20:06:28.470Z,100312.97
2023-05-07T20:09:16.953Z,100318.28
2023-05-07T20:12:06.686Z,100322.25
2023-05-07T20:14:55.139Z,100335.69
2023-05-07T20:17:45.109Z,100331.09
2023-05-07T20:20:33.683Z,100295.00
2023-05-07T20:23:22.148Z,100342.19
2023-05-07T20:26:10.603Z,100336.03
2023-05-07T20:28:59.099Z,100333.09
2023-05-07T20:31:47.620Z,100339.34
2023-05-07T20:34:37.722Z,100343.59
2023-05-07T20:37:26.865Z,100346.88
2023-05-07T20:40:16.852Z,100358.69
2023-05-07T20:43:07.412Z,100358.81
2023-05-07T20:46:00.378Z,100347.38
2023-05-07T20:48:49.389Z,100346.22
2023-05-07T20:51:39.227Z,100347.75
2023-05-07T20:54:28.688Z,100342.44
2023-05-07T20:57:19.394Z,100355.19
2023-05-07T21:00:09.313Z,100358.13
2023-05-07T21:02:57.828Z,100349.41
2023-05-07T21:05:51.953Z,100352.13
2023-05-07T21:08:41.846Z,100364.56
2023-05-07T21:11:30.285Z,100365.41
2023-05-07T21:14:18.742Z,100367.53
2023-05-07T21:17:07.419Z,100366.47
2023-05-07T21:19:55.955Z,100362.22
2023-05-07T21:22:44.388Z,100362.69
2023-05-07T21:25:34.266Z,100361.84
2023-05-07T21:28:22.714Z,100367.63
2023-05-07T21:31:11.849Z,100365.47
2023-05-07T21:34:00.321Z,100368.81
2023-05-07T21:36:48.776Z,100372.38
2023-05-07T21:39:37.337Z,100378.34
2023-05-07T21:42:28.254Z,100383.19
2023-05-07T21:45:16.750Z,100381.28
2023-05-07T21:48:05.796Z,100374.09
2023-05-07T21:51:01.203Z,100357.38
2023-05-07T21:53:49.728Z,100381.06
2023-05-07T21:56:38.440Z,100389.78
2023-05-07T21:59:28.247Z,100391.66
2023-05-07T22:02:16.739Z,100386.22
2023-05-07T22:05:05.620Z,100383.28
2023-05-07T22:07:54.305Z,100389.53
2023-05-07T22:10:42.849Z,100380.34
2023-05-07T22:13:31.415Z,100387.53
2023-05-07T22:16:21.514Z,100385.66
2023-05-07T22:19:10.534Z,100390.84
2023-05-07T22:21:59.053Z,100380.94
2023-05-07T22:24:47.574Z,100381.56
2023-05-07T22:27:36.089Z,100389.66
2023-05-07T22:30:24.841Z,100388.84
2023-05-07T22:33:14.763Z,100384.25
2023-05-07T22:36:03.315Z,100391.06
2023-05-07T22:38:51.955Z,100396.25
2023-05-07T22:41:40.750Z,100395.41
2023-05-07T22:44:29.310Z,100397.56
2023-05-07T22:47:17.812Z,100392.63
2023-05-07T22:50:09.249Z,100382.03
2023-05-07T22:52:58.208Z,100393.88
2023-05-07T22:55:46.927Z,100388.72
2023-05-07T22:58:35.571Z,100382.97
2023-05-07T23:01:24.278Z,100372.19
2023-05-07T23:04:13.145Z,100378.91
2023-05-07T23:07:02.924Z,100376.91
2023-05-07T23:09:51.404Z,100377.75
2023-05-07T23:12:39.898Z,100384.81
2023-05-07T23:15:28.483Z,100369.50
2023-05-07T23:18:17.031Z,100375.25
2023-05-07T23:21:06.667Z,100371.84
2023-05-07T23:23:56.733Z,100382.66
2023-05-07T23:26:45.489Z,100378.91
2023-05-07T23:29:34.407Z,100381.63
2023-05-07T23:32:22.930Z,100385.50
2023-05-07T23:35:11.430Z,100385.97
2023-05-07T23:38:00.249Z,100357.97
2023-05-07T23:40:50.057Z,100395.16
2023-05-07T23:43:38.517Z,100387.03
2023-05-07T23:46:27.162Z,100386.19
2023-05-07T23:49:15.613Z,100387.59
2023-05-07T23:52:04.096Z,100376.44
2023-05-07T23:54:52.580Z,100389.59
2023-05-07T23:57:42.401Z,100390.91
